createdAt,value
2022-09-20T00:01:42.400Z,88.75
2022-09-20T00:04:11.326Z,88.80
2022-09-20T00:06:39.644Z,88.90
2022-09-20T00:09:07.894Z,88.94
2022-09-20T00:11:38.329Z,89.04
2022-09-20T00:14:09.514Z,88.64
2022-09-20T00:16:41.424Z,88.29
2022-09-20T00:19:16.227Z,88.51
2022-09-20T00:21:44.784Z,88.37
2022-09-20T00:24:13.745Z,88.80
2022-09-20T00:26:43.605Z,88.80
2022-09-20T00:29:13.287Z,89.03
2022-09-20T00:31:43.020Z,89.18
2022-09-20T00:34:29.938Z,89.33
2022-09-20T00:36:58.256Z,89.31
2022-09-20T00:39:27.108Z,89.27
2022-09-20T00:41:56.734Z,89.19
2022-09-20T00:44:45.483Z,89.39
2022-09-20T00:47:20.597Z,89.70
2022-09-20T00:49:49.729Z,89.54
2022-09-20T00:52:19.364Z,89.48
2022-09-20T00:54:48.141Z,89.56
2022-09-20T00:57:18.452Z,89.34
2022-09-20T00:59:50.121Z,89.49
2022-09-20T01:02:21.445Z,89.65
2022-09-20T01:04:50.651Z,89.95
2022-09-20T01:07:23.415Z,90.07
2022-09-20T01:09:52.398Z,90.12
2022-09-20T01:12:24.561Z,90.09
2022-09-20T01:14:54.608Z,90.02
2022-09-20T01:17:26.023Z,90.10
2022-09-20T01:20:08.788Z,90.09
2022-09-20T01:23:00.023Z,89.91
2022-09-20T01:25:49.887Z,89.99
2022-09-20T01:28:19.771Z,90.14
2022-09-20T01:30:53.355Z,90.35
2022-09-20T01:33:29.656Z,90.42
2022-09-20T01:36:02.252Z,90.59
2022-09-20T01:38:39.705Z,90.50
2022-09-20T01:41:13.237Z,90.17
2022-09-20T01:43:49.601Z,90.09
2022-09-20T01:46:30.070Z,90.47
2022-09-20T01:49:10.724Z,90.83
2022-09-20T01:52:02.964Z,90.91
2022-09-20T01:55:13.677Z,91.05
2022-09-20T01:58:27.097Z,90.86
2022-09-20T02:01:34.993Z,90.76
2022-09-20T02:04:32.953Z,90.53
2022-09-20T02:07:15.991Z,91.15
2022-09-20T02:10:12.713Z,91.29
2022-09-20T02:12:54.261Z,90.98
2022-09-20T02:15:42.445Z,91.28
2022-09-20T02:18:27.319Z,91.27
2022-09-20T02:21:02.222Z,91.53
2022-09-20T02:23:41.773Z,91.46
2022-09-20T02:26:44.271Z,91.53
2022-09-20T02:29:30.973Z,91.03
2022-09-20T02:32:16.246Z,91.30
2022-09-20T02:35:26.783Z,91.15
2022-09-20T02:38:19.774Z,91.50
2022-09-20T02:41:15.202Z,91.72
2022-09-20T02:43:53.008Z,91.02
2022-09-20T02:46:28.788Z,91.16
2022-09-20T02:49:04.245Z,90.93
2022-09-20T02:51:40.891Z,91.08
2022-09-20T02:54:23.335Z,91.07
2022-09-20T02:56:59.739Z,91.21
2022-09-20T02:59:40.292Z,90.66
2022-09-20T03:02:19.524Z,90.54
2022-09-20T03:04:59.733Z,90.66
2022-09-20T03:07:36.312Z,90.83
2022-09-20T03:10:15.343Z,90.66
2022-09-20T03:12:56.220Z,90.73
2022-09-20T03:15:32.773Z,90.44
2022-09-20T03:18:09.420Z,90.47
2022-09-20T03:20:49.163Z,90.59
2022-09-20T03:23:36.828Z,90.86
2022-09-20T03:26:15.088Z,90.64
2022-09-20T03:29:00.629Z,90.82
2022-09-20T03:31:50.808Z,90.49
2022-09-20T03:34:36.268Z,90.56
2022-09-20T03:37:24.337Z,90.24
2022-09-20T03:40:19.661Z,90.05
2022-09-20T03:42:50.386Z,90.09
2022-09-20T03:45:48.096Z,89.94
2022-09-20T03:48:48.200Z,89.86
2022-09-20T03:51:33.607Z,89.73
2022-09-20T03:54:33.108Z,89.84
2022-09-20T03:57:36.345Z,89.87
2022-09-20T04:00:23.616Z,89.89
2022-09-20T04:03:12.098Z,90.19
2022-09-20T04:05:52.675Z,90.25
2022-09-20T04:08:40.361Z,90.69
2022-09-20T04:11:19.192Z,90.83
2022-09-20T04:13:55.974Z,90.54
2022-09-20T04:16:33.442Z,90.24
2022-09-20T04:19:11.612Z,90.19
2022-09-20T04:21:49.608Z,90.18
2022-09-20T04:24:24.012Z,90.04
2022-09-20T04:26:58.548Z,90.07
2022-09-20T04:29:39.242Z,90.10
2022-09-20T04:32:16.763Z,90.31
2022-09-20T04:35:07.145Z,89.98
2022-09-20T04:37:38.542Z,89.76
2022-09-20T04:40:19.580Z,90.15
2022-09-20T04:43:29.139Z,90.36
2022-09-20T04:46:36.613Z,89.92
2022-09-20T04:49:44.091Z,89.84
2022-09-20T04:52:47.878Z,89.60
2022-09-20T04:55:50.192Z,89.99
2022-09-20T04:58:39.648Z,90.02
2022-09-20T05:01:40.417Z,90.08
2022-09-20T05:04:59.081Z,90.15
2022-09-20T05:08:10.820Z,90.26
2022-09-20T05:11:14.962Z,90.50
2022-09-20T05:14:02.487Z,90.33
2022-09-20T05:16:44.213Z,90.09
2022-09-20T05:19:30.852Z,89.97
2022-09-20T05:22:19.210Z,90.12
2022-09-20T05:25:11.189Z,90.22
2022-09-20T05:27:46.629Z,89.70
2022-09-20T05:30:24.875Z,89.57
2022-09-20T05:33:05.766Z,89.32
2022-09-20T05:35:43.332Z,89.44
2022-09-20T05:38:18.740Z,89.52
2022-09-20T05:41:04.416Z,89.58
2022-09-20T05:43:35.216Z,89.48
2022-09-20T05:46:17.756Z,89.75
2022-09-20T05:48:56.320Z,89.44
2022-09-20T05:51:55.860Z,89.53
2022-09-20T05:54:49.846Z,89.25
2022-09-20T05:57:30.018Z,89.22
2022-09-20T06:00:04.568Z,89.02
2022-09-20T06:02:49.067Z,89.21
2022-09-20T06:05:22.035Z,89.24
2022-09-20T06:08:06.155Z,89.23
2022-09-20T06:10:52.943Z,89.41
2022-09-20T06:13:59.755Z,89.41
2022-09-20T06:16:38.141Z,89.41
2022-09-20T06:19:16.887Z,89.39
2022-09-20T06:21:52.634Z,89.47
2022-09-20T06:24:33.181Z,89.05
2022-09-20T06:27:05.799Z,88.63
2022-09-20T06:29:37.517Z,88.84
2022-09-20T06:32:06.109Z,88.80
2022-09-20T06:34:34.425Z,88.63
2022-09-20T06:37:29.813Z,88.41
2022-09-20T06:40:29.020Z,87.58
2022-09-20T06:43:00.374Z,87.29
2022-09-20T06:45:29.108Z,86.99
2022-09-20T06:47:57.629Z,86.80
2022-09-20T06:50:25.960Z,85.89
2022-09-20T06:52:55.148Z,85.64
2022-09-20T06:55:30.377Z,85.23
2022-09-20T06:57:58.859Z,85.15
2022-09-20T07:00:27.199Z,84.79
2022-09-20T07:02:56.768Z,84.39
2022-09-20T07:05:26.639Z,84.63
2022-09-20T07:07:58.711Z,85.09
2022-09-20T07:10:29.186Z,85.32
2022-09-20T07:13:00.509Z,84.95
2022-09-20T07:15:29.276Z,83.60
2022-09-20T07:18:00.219Z,84.16
2022-09-20T07:20:29.300Z,84.67
2022-09-20T07:22:57.755Z,84.73
2022-09-20T07:25:26.060Z,84.87
2022-09-20T07:27:55.729Z,83.90
2022-09-20T07:30:24.888Z,84.17
2022-09-20T07:32:53.675Z,84.75
2022-09-20T07:35:22.427Z,83.68
2022-09-20T07:37:57.666Z,84.20
2022-09-20T07:40:27.494Z,84.58
2022-09-20T07:42:59.005Z,84.58
2022-09-20T07:45:27.567Z,84.45
2022-09-20T07:47:55.875Z,84.09
2022-09-20T07:50:24.630Z,83.61
2022-09-20T07:52:52.923Z,84.08
2022-09-20T07:55:21.297Z,84.53
2022-09-20T07:57:49.661Z,84.38
2022-09-20T08:00:19.587Z,84.41
2022-09-20T08:02:47.895Z,84.21
2022-09-20T08:05:16.354Z,84.79
2022-09-20T08:07:44.781Z,85.10
2022-09-20T08:10:13.063Z,85.23
2022-09-20T08:15:31.837Z,85.43
2022-09-20T08:18:00.203Z,84.51
2022-09-20T08:20:30.913Z,84.02
2022-09-20T08:23:22.181Z,83.54
2022-09-20T08:25:49.925Z,82.84
2022-09-20T08:28:18.315Z,81.94
2022-09-20T08:30:48.163Z,81.06
2022-09-20T08:33:16.543Z,80.88
2022-09-20T08:35:44.993Z,80.73
2022-09-20T08:41:05.864Z,80.68
2022-09-20T08:43:45.480Z,80.02
2022-09-20T08:46:23.586Z,80.12
2022-09-20T08:48:55.700Z,80.58
2022-09-20T08:51:25.387Z,80.05
2022-09-20T08:53:55.513Z,81.25
2022-09-20T08:56:24.352Z,80.90
2022-09-20T08:58:53.380Z,81.43
2022-09-20T09:01:24.986Z,81.65
2022-09-20T09:03:59.032Z,81.46
2022-09-20T09:06:27.303Z,82.35
2022-09-20T09:09:00.410Z,81.95
2022-09-20T09:11:28.725Z,81.84
2022-09-20T09:14:01.497Z,81.68
2022-09-20T09:16:36.367Z,81.23
2022-09-20T09:19:33.775Z,81.01
2022-09-20T09:22:04.474Z,81.02
2022-09-20T09:24:33.580Z,80.33
2022-09-20T09:27:10.561Z,80.65
2022-09-20T09:29:51.781Z,80.62
2022-09-20T09:32:28.556Z,80.58
2022-09-20T09:34:57.358Z,79.72
2022-09-20T09:37:29.090Z,79.14
2022-09-20T09:40:16.489Z,79.54
2022-09-20T09:42:53.930Z,79.25
2022-09-20T09:45:29.182Z,78.63
2022-09-20T09:48:01.615Z,79.41
2022-09-20T09:50:33.681Z,79.96
2022-09-20T09:53:07.108Z,79.21
2022-09-20T09:55:58.093Z,79.40
2022-09-20T09:58:39.203Z,79.40
2022-09-20T10:01:30.030Z,80.52
2022-09-20T10:04:10.861Z,81.32
2022-09-20T10:06:50.524Z,80.31
2022-09-20T10:09:37.351Z,82.03
2022-09-20T10:12:19.772Z,79.70
2022-09-20T10:15:04.186Z,79.98
2022-09-20T10:17:51.899Z,78.15
2022-09-20T10:20:53.237Z,79.28
2022-09-20T10:24:03.330Z,76.92
2022-09-20T10:26:40.381Z,76.97
2022-09-20T10:29:17.054Z,76.60
2022-09-20T10:31:57.372Z,75.79
2022-09-20T10:35:09.361Z,74.77
2022-09-20T10:37:51.029Z,75.39
2022-09-20T10:40:50.621Z,75.33
2022-09-20T10:43:31.093Z,77.34
2022-09-20T10:46:31.390Z,74.45
2022-09-20T10:49:05.797Z,72.66
2022-09-20T10:51:45.672Z,74.80
2022-09-20T10:54:30.233Z,73.37
2022-09-20T10:57:12.496Z,72.52
2022-09-20T10:59:51.363Z,73.29
2022-09-20T11:02:37.265Z,72.85
2022-09-20T11:05:27.277Z,72.96
2022-09-20T11:08:03.320Z,69.97
2022-09-20T11:10:39.211Z,72.09
2022-09-20T11:13:14.715Z,72.25
2022-09-20T11:15:47.088Z,72.76
2022-09-20T11:18:23.445Z,72.35
2022-09-20T11:20:59.367Z,70.76
2022-09-20T11:23:34.948Z,73.32
2022-09-20T11:26:11.623Z,73.99
2022-09-20T11:28:43.478Z,74.79
2022-09-20T11:31:19.264Z,75.35
2022-09-20T11:33:53.316Z,73.19
2022-09-20T11:36:28.438Z,75.43
2022-09-20T11:39:03.246Z,75.14
2022-09-20T11:41:33.679Z,73.71
2022-09-20T11:44:08.614Z,75.54
2022-09-20T11:46:43.601Z,76.14
2022-09-20T11:49:17.604Z,74.76
2022-09-20T11:52:12.367Z,76.74
2022-09-20T11:55:16.342Z,76.80
2022-09-20T11:57:46.818Z,76.21
2022-09-20T12:00:17.772Z,76.86
2022-09-20T12:02:49.472Z,77.61
2022-09-20T12:05:32.239Z,77.10
2022-09-20T12:08:02.571Z,78.27
2022-09-20T12:10:35.315Z,77.48
2022-09-20T12:13:06.964Z,77.95
2022-09-20T12:15:39.069Z,77.02
2022-09-20T12:18:35.572Z,77.69
2022-09-20T12:21:17.372Z,76.25
2022-09-20T12:24:02.706Z,76.60
2022-09-20T12:26:44.662Z,75.62
2022-09-20T12:29:55.288Z,75.87
2022-09-20T12:32:52.034Z,76.44
2022-09-20T12:35:59.835Z,74.66
2022-09-20T12:38:37.639Z,75.65
2022-09-20T12:41:14.146Z,76.77
2022-09-20T12:43:54.494Z,75.12
2022-09-20T12:46:28.003Z,76.08
2022-09-20T12:49:52.575Z,76.01
2022-09-20T12:52:49.899Z,75.34
2022-09-20T12:55:34.515Z,75.66
2022-09-20T12:58:06.163Z,76.58
2022-09-20T13:00:39.137Z,75.99
2022-09-20T13:03:27.174Z,75.73
2022-09-20T13:06:23.489Z,75.78
2022-09-20T13:08:59.284Z,76.28
2022-09-20T13:11:31.770Z,75.36
2022-09-20T13:14:04.830Z,75.90
2022-09-20T13:16:40.744Z,74.96
2022-09-20T13:19:16.442Z,75.08
2022-09-20T13:21:57.693Z,74.86
2022-09-20T13:24:29.277Z,74.98
2022-09-20T13:27:03.512Z,73.57
2022-09-20T13:29:34.386Z,73.05
2022-09-20T13:32:17.369Z,73.80
2022-09-20T13:34:46.691Z,74.67
2022-09-20T13:37:23.488Z,74.61
2022-09-20T13:39:56.339Z,74.10
2022-09-20T13:42:24.828Z,74.89
2022-09-20T13:44:53.589Z,73.74
2022-09-20T13:47:24.496Z,74.51
2022-09-20T13:49:53.246Z,73.45
2022-09-20T13:52:27.848Z,74.45
2022-09-20T13:54:57.968Z,74.80
2022-09-20T13:57:29.655Z,75.89
2022-09-20T13:59:58.408Z,76.50
2022-09-20T14:02:30.692Z,76.76
2022-09-20T14:05:01.620Z,76.85
2022-09-20T14:07:31.146Z,76.71
2022-09-20T14:10:01.251Z,76.53
2022-09-20T14:12:30.086Z,76.54
2022-09-20T14:14:59.485Z,76.15
2022-09-20T14:17:32.676Z,76.04
2022-09-20T14:20:01.267Z,76.57
2022-09-20T14:22:30.262Z,77.25
2022-09-20T14:25:02.736Z,77.76
2022-09-20T14:27:32.736Z,76.95
2022-09-20T14:30:01.301Z,77.62
2022-09-20T14:32:38.481Z,76.69
2022-09-20T14:35:14.573Z,77.41
2022-09-20T14:37:46.328Z,76.89
2022-09-20T14:40:23.793Z,76.83
2022-09-20T14:42:55.839Z,75.41
2022-09-20T14:45:28.496Z,76.05
2022-09-20T14:48:00.833Z,72.44
2022-09-20T14:50:31.252Z,72.64
2022-09-20T14:53:21.551Z,72.25
2022-09-20T14:55:59.626Z,72.63
2022-09-20T14:58:28.022Z,72.93
2022-09-20T15:01:01.394Z,73.80
2022-09-20T15:03:32.951Z,72.51
2022-09-20T15:06:01.582Z,71.72
2022-09-20T15:08:30.164Z,66.62
2022-09-20T15:11:00.429Z,67.59
2022-09-20T15:13:28.806Z,68.55
2022-09-20T15:15:57.858Z,66.24
2022-09-20T15:18:29.155Z,66.24
2022-09-20T15:20:58.222Z,64.79
2022-09-20T15:23:26.531Z,66.42
2022-09-20T15:25:56.414Z,66.68
2022-09-20T15:28:26.895Z,65.04
2022-09-20T15:30:55.265Z,90.63
2022-09-20T15:33:23.553Z,89.89
2022-09-20T15:35:51.930Z,93.47
2022-09-20T15:38:20.626Z,96.39
2022-09-20T15:40:50.865Z,99.63
2022-09-20T15:43:21.998Z,105.05
2022-09-20T15:45:54.891Z,104.98
2022-09-20T15:48:25.564Z,105.81
2022-09-20T15:51:12.638Z,100.93
2022-09-20T15:53:44.967Z,106.08
2022-09-20T15:56:17.757Z,102.60
2022-09-20T15:58:48.638Z,108.92
2022-09-20T16:01:19.715Z,110.38
2022-09-20T16:03:49.016Z,104.70
2022-09-20T16:06:17.643Z,92.43
2022-09-20T16:08:46.279Z,109.49
2022-09-20T16:11:20.428Z,103.90
2022-09-20T16:13:54.472Z,100.19
2022-09-20T16:16:24.553Z,108.11
2022-09-20T16:19:12.735Z,110.52
2022-09-20T16:21:43.292Z,101.19
2022-09-20T16:24:13.359Z,107.34
2022-09-20T16:26:41.864Z,109.70
2022-09-20T16:29:11.752Z,111.09
2022-09-20T16:31:42.980Z,105.39
2022-09-20T16:34:16.963Z,95.39
2022-09-20T16:36:45.527Z,106.79
2022-09-20T16:39:15.299Z,106.14
2022-09-20T16:41:44.533Z,102.00
2022-09-20T16:44:13.165Z,85.30
2022-09-20T16:46:44.592Z,89.25
2022-09-20T16:49:14.241Z,89.75
2022-09-20T16:51:43.833Z,90.32
2022-09-20T16:54:13.586Z,88.13
2022-09-20T16:56:44.635Z,87.82
2022-09-20T16:59:14.040Z,85.97
2022-09-20T17:01:47.107Z,90.89
2022-09-20T17:04:17.953Z,86.41
2022-09-20T17:06:47.175Z,86.07
2022-09-20T17:09:16.637Z,81.88
2022-09-20T17:11:47.141Z,82.06
2022-09-20T17:14:17.290Z,81.50
2022-09-20T17:16:48.131Z,81.15
2022-09-20T17:19:18.525Z,80.91
2022-09-20T17:21:50.743Z,80.49
2022-09-20T17:24:20.077Z,79.76
2022-09-20T17:26:50.470Z,79.82
2022-09-20T17:29:20.438Z,79.39
2022-09-20T17:31:55.614Z,79.95
2022-09-20T17:34:26.389Z,80.09
2022-09-20T17:36:55.569Z,80.14
2022-09-20T17:39:24.449Z,80.55
2022-09-20T17:41:53.013Z,80.74
2022-09-20T17:44:21.337Z,80.91
2022-09-20T17:46:53.979Z,80.81
2022-09-20T17:49:23.946Z,80.85
2022-09-20T17:51:53.705Z,80.88
2022-09-20T17:54:22.615Z,80.53
2022-09-20T17:56:53.315Z,81.04
2022-09-20T17:59:22.191Z,80.94
2022-09-20T18:01:54.361Z,80.66
2022-09-20T18:04:24.638Z,81.09
2022-09-20T18:06:54.194Z,81.11
2022-09-20T18:09:24.356Z,80.78
2022-09-20T18:11:54.181Z,80.66
2022-09-20T18:14:24.267Z,79.98
2022-09-20T18:16:55.475Z,80.14
2022-09-20T18:19:24.675Z,80.24
2022-09-20T18:21:53.113Z,80.33
2022-09-20T18:24:21.392Z,80.28
2022-09-20T18:26:49.747Z,80.72
2022-09-20T18:29:19.107Z,80.98
2022-09-20T18:31:52.245Z,81.01
2022-09-20T18:34:24.381Z,80.75
2022-09-20T18:36:54.197Z,80.82
2022-09-20T18:39:23.236Z,80.97
2022-09-20T18:41:53.309Z,81.24
2022-09-20T18:44:23.359Z,81.49
2022-09-20T18:46:53.492Z,81.45
2022-09-20T18:49:23.633Z,81.82
2022-09-20T18:51:51.985Z,81.78
2022-09-20T18:54:20.320Z,82.01
2022-09-20T18:56:50.435Z,82.01
2022-09-20T18:59:21.467Z,81.86
2022-09-20T19:02:20.055Z,81.36
2022-09-20T19:05:18.914Z,81.01
2022-09-20T19:07:55.244Z,81.44
2022-09-20T19:10:32.891Z,81.49
2022-09-20T19:13:19.174Z,81.77
2022-09-20T19:16:11.567Z,82.06
2022-09-20T19:19:09.523Z,82.44
2022-09-20T19:21:46.042Z,82.67
2022-09-20T19:24:26.550Z,82.49
2022-09-20T19:26:55.234Z,82.54
2022-09-20T19:29:26.852Z,82.90
2022-09-20T19:31:57.202Z,82.74
2022-09-20T19:34:27.606Z,82.90
2022-09-20T19:37:08.222Z,82.68
2022-09-20T19:39:54.927Z,82.95
2022-09-20T19:42:36.243Z,83.32
2022-09-20T19:45:15.479Z,83.26
2022-09-20T19:47:52.043Z,83.26
2022-09-20T19:50:29.533Z,83.22
2022-09-20T19:53:01.931Z,82.86
2022-09-20T19:55:31.323Z,82.57
2022-09-20T19:58:00.194Z,82.77
2022-09-20T20:00:30.114Z,83.04
2022-09-20T20:02:58.975Z,83.33
2022-09-20T20:05:29.242Z,83.56
2022-09-20T20:08:19.546Z,83.70
2022-09-20T20:10:58.563Z,83.74
2022-09-20T20:13:52.639Z,84.04
2022-09-20T20:16:29.431Z,84.01
2022-09-20T20:19:16.423Z,84.19
2022-09-20T20:21:52.766Z,84.47
2022-09-20T20:24:30.137Z,84.41
2022-09-20T20:26:58.518Z,84.33
2022-09-20T20:29:27.423Z,84.36
2022-09-20T20:31:55.682Z,84.52
2022-09-20T20:34:24.507Z,84.51
2022-09-20T20:36:54.362Z,84.00
2022-09-20T20:39:24.012Z,83.71
2022-09-20T20:41:52.656Z,83.92
2022-09-20T20:44:22.130Z,84.03
2022-09-20T20:46:50.928Z,84.12
2022-09-20T20:49:19.252Z,84.31
2022-09-20T20:51:48.193Z,84.60
2022-09-20T20:54:16.558Z,84.64
2022-09-20T20:56:46.157Z,84.64
2022-09-20T20:59:16.083Z,84.86
2022-09-20T21:01:45.976Z,84.87
2022-09-20T21:04:15.295Z,84.97
2022-09-20T21:06:44.090Z,84.99
2022-09-20T21:09:13.507Z,85.00
2022-09-20T21:11:43.261Z,84.73
2022-09-20T21:14:13.614Z,84.93
2022-09-20T21:16:43.614Z,84.97
2022-09-20T21:19:14.963Z,84.57
2022-09-20T21:21:45.342Z,83.99
2022-09-20T21:24:17.264Z,84.18
2022-09-20T21:26:46.945Z,84.58
2022-09-20T21:29:17.440Z,84.81
2022-09-20T21:31:47.276Z,84.99
2022-09-20T21:34:17.044Z,85.08
2022-09-20T21:36:45.647Z,85.16
2022-09-20T21:39:14.393Z,85.32
2022-09-20T21:41:43.106Z,85.23
2022-09-20T21:44:12.275Z,85.18
2022-09-20T21:46:43.147Z,85.26
2022-09-20T21:49:13.191Z,85.18
2022-09-20T21:51:43.941Z,85.30
2022-09-20T21:54:12.496Z,85.20
2022-09-20T21:56:41.445Z,85.19
2022-09-20T21:59:10.109Z,85.31
2022-09-20T22:01:40.293Z,85.20
2022-09-20T22:04:11.513Z,84.83
2022-09-20T22:06:41.508Z,84.60
2022-09-20T22:09:11.509Z,84.87
2022-09-20T22:11:41.735Z,85.01
2022-09-20T22:14:11.130Z,85.16
2022-09-20T22:16:41.224Z,85.37
2022-09-20T22:19:13.377Z,85.42
2022-09-20T22:21:44.231Z,85.29
2022-09-20T22:24:14.298Z,85.73
2022-09-20T22:26:44.631Z,85.48
2022-09-20T22:29:13.544Z,85.55
2022-09-20T22:31:45.697Z,85.38
2022-09-20T22:34:18.158Z,84.81
2022-09-20T22:36:47.895Z,84.83
2022-09-20T22:39:17.225Z,84.66
2022-09-20T22:41:48.080Z,84.79
2022-09-20T22:44:16.887Z,84.81
2022-09-20T22:46:45.425Z,85.10
2022-09-20T22:49:15.492Z,85.11
2022-09-20T22:51:44.374Z,85.22
2022-09-20T22:54:13.666Z,85.50
2022-09-20T22:56:42.681Z,85.55
2022-09-20T22:59:12.877Z,85.37
2022-09-20T23:01:43.521Z,85.47
2022-09-20T23:04:14.751Z,85.71
2022-09-20T23:06:47.920Z,85.90
2022-09-20T23:09:18.555Z,85.87
2022-09-20T23:11:47.726Z,85.75
2022-09-20T23:14:18.830Z,85.39
2022-09-20T23:16:48.459Z,84.90
2022-09-20T23:19:17.496Z,84.98
2022-09-20T23:21:47.619Z,85.26
2022-09-20T23:24:17.255Z,85.42
2022-09-20T23:26:46.364Z,85.78
2022-09-20T23:29:16.406Z,85.82
2022-09-20T23:31:47.395Z,85.81
2022-09-20T23:34:17.461Z,85.93
2022-09-20T23:36:47.691Z,86.00
2022-09-20T23:39:16.812Z,86.09
2022-09-20T23:41:50.714Z,86.16
2022-09-20T23:44:20.392Z,86.07
2022-09-20T23:46:48.965Z,86.08
2022-09-20T23:49:17.633Z,86.00
2022-09-20T23:51:47.688Z,85.88
2022-09-20T23:54:16.460Z,85.96
2022-09-20T23:56:45.041Z,85.49
2022-09-20T23:59:13.665Z,85.27
